Time;durP1;ratioP1;P1;durP2;ratioP2;P2;SDS_P1;SDS_P2;PMS_P1;PMS_P2;Temp;Humidity;BMP_temperature;BMP_pressure;BME280_temperature;BME280_humidity;BME280_pressure;Samples;Min_cycle;Max_cycle;Signal;HPM_P1;HPM_P2
2022/09/17 00:02:25;;;;;;;13.15;4.10;;;;;;;9.77;100.00;101527.63;5263236;28;20034;-72
2022/09/17 00:04:56;;;;;;;15.52;2.42;;;;;;;9.81;100.00;101522.81;5286806;28;20015;-72
2022/09/17 00:07:27;;;;;;;9.80;2.13;;;;;;;9.80;100.00;101531.84;5270945;28;20036;-72
2022/09/17 00:09:57;;;;;;;12.30;2.35;;;;;;;9.82;100.00;101533.38;5276787;28;20039;-72
2022/09/17 00:12:29;;;;;;;12.75;2.70;;;;;;;9.83;100.00;101531.56;5269332;28;20111;-72
2022/09/17 00:15:00;;;;;;;16.92;2.83;;;;;;;9.84;100.00;101530.59;5282963;28;20093;-72
2022/09/17 00:17:30;;;;;;;13.35;3.15;;;;;;;9.84;100.00;101526.06;5250085;28;20054;-73
2022/09/17 00:20:01;;;;;;;11.13;2.03;;;;;;;9.86;100.00;101534.78;5266223;28;20052;-74
2022/09/17 00:22:32;;;;;;;20.20;3.05;;;;;;;9.91;100.00;101531.69;5273109;28;20037;-73
2022/09/17 00:25:03;;;;;;;29.23;3.45;;;;;;;9.92;100.00;101543.25;5271580;28;20455;-73
2022/09/17 00:27:34;;;;;;;16.23;2.38;;;;;;;9.90;100.00;101546.09;5266062;28;20413;-73
2022/09/17 00:30:05;;;;;;;16.60;3.55;;;;;;;9.90;100.00;101542.56;5281468;28;20020;-73
2022/09/17 00:32:35;;;;;;;11.70;2.20;;;;;;;9.90;100.00;101539.88;5277661;28;20032;-73
2022/09/17 00:35:06;;;;;;;15.52;3.03;;;;;;;9.90;100.00;101526.47;5282021;28;20100;-73
2022/09/17 00:37:37;;;;;;;14.10;2.83;;;;;;;9.85;100.00;101522.41;5275533;28;20397;-73
2022/09/17 00:40:08;;;;;;;12.95;2.63;;;;;;;9.79;100.00;101520.28;5265417;28;20020;-72
2022/09/17 00:42:39;;;;;;;13.88;2.20;;;;;;;9.78;100.00;101518.59;5265691;28;20544;-73
2022/09/17 00:45:11;;;;;;;12.75;2.42;;;;;;;9.77;100.00;101516.06;5278469;28;20107;-72
2022/09/17 00:47:49;;;;;;;8.98;1.90;;;;;;;9.76;100.00;101522.41;5265672;28;20039;-73
2022/09/17 00:50:28;;;;;;;14.45;2.60;;;;;;;9.72;100.00;101521.00;5274836;28;20027;-73
2022/09/17 00:53:05;;;;;;;11.50;2.47;;;;;;;9.67;100.00;101515.22;5273334;28;20484;-72
2022/09/17 00:55:38;;;;;;;19.23;3.42;;;;;;;9.66;100.00;101526.94;5285790;28;20027;-71
2022/09/17 00:58:11;;;;;;;8.73;2.20;;;;;;;9.68;100.00;101520.44;5286467;28;20069;-72
2022/09/17 01:00:42;;;;;;;13.02;2.90;;;;;;;9.70;100.00;101539.06;5285644;28;20023;-72
2022/09/17 01:03:12;;;;;;;9.93;2.22;;;;;;;9.73;100.00;101536.94;5276247;28;20098;-72
2022/09/17 01:05:48;;;;;;;15.05;2.67;;;;;;;9.74;100.00;101537.78;5284450;28;20028;-72
2022/09/17 01:08:29;;;;;;;15.48;3.55;;;;;;;9.76;100.00;101533.13;5265917;28;20122;-72
2022/09/17 01:11:31;;;;;;;12.98;2.78;;;;;;;9.74;100.00;101535.09;5284192;28;20442;-73
2022/09/17 01:14:18;;;;;;;11.77;2.90;;;;;;;9.71;100.00;101530.03;5278463;28;20065;-72
2022/09/17 01:17:13;;;;;;;14.63;3.47;;;;;;;9.67;100.00;101534.00;5273393;28;20114;-72
2022/09/17 01:20:11;;;;;;;9.82;2.65;;;;;;;9.66;100.00;101543.03;5275954;28;20069;-72
2022/09/17 01:23:16;;;;;;;20.77;3.05;;;;;;;9.64;100.00;101543.19;5265574;28;20032;-71
2022/09/17 01:26:10;;;;;;;18.73;2.58;;;;;;;9.65;100.00;101541.34;5284860;28;20028;-72
2022/09/17 01:28:56;;;;;;;7.97;2.35;;;;;;;9.65;100.00;101541.34;5282941;28;20032;-72
2022/09/17 01:31:34;;;;;;;13.90;2.38;;;;;;;9.65;100.00;101538.66;5279139;28;20024;-71
2022/09/17 01:34:25;;;;;;;14.32;2.78;;;;;;;9.66;100.00;101537.66;5278395;28;20032;-71
2022/09/17 01:37:03;;;;;;;10.85;2.50;;;;;;;9.68;100.00;101543.72;5267294;28;20032;-71
2022/09/17 01:39:49;;;;;;;12.98;2.97;;;;;;;9.72;100.00;101545.13;5265478;28;20470;-73
2022/09/17 01:42:48;;;;;;;15.80;2.50;;;;;;;9.78;100.00;101549.91;5274902;28;20035;-72
2022/09/17 01:45:53;;;;;;;16.77;2.58;;;;;;;9.83;100.00;101553.00;5272187;28;20107;-72
2022/09/17 01:48:30;;;;;;;14.82;2.33;;;;;;;9.89;100.00;101552.44;5285761;28;20051;-71
2022/09/17 01:51:21;;;;;;;15.27;2.65;;;;;;;9.95;100.00;101559.06;5271472;28;20016;-71
2022/09/17 01:54:27;;;;;;;17.52;2.80;;;;;;;9.99;100.00;101561.31;5267476;28;20084;-71
2022/09/17 01:57:20;;;;;;;21.00;2.80;;;;;;;10.02;100.00;101558.31;5269203;28;20073;-71
2022/09/17 01:59:58;;;;;;;25.65;3.45;;;;;;;10.04;100.00;101553.66;5268797;28;20081;-72
2022/09/17 02:02:42;;;;;;;10.65;3.17;;;;;;;10.09;100.00;101555.88;5284563;28;20024;-71
2022/09/17 02:05:23;;;;;;;15.27;2.40;;;;;;;10.10;100.00;101562.97;5289420;28;20135;-73
2022/09/17 02:08:02;;;;;;;13.63;3.20;;;;;;;10.11;100.00;101561.97;5269759;28;20094;-72
2022/09/17 02:10:39;;;;;;;12.55;2.55;;;;;;;10.09;100.00;101574.66;5282583;28;20389;-72
2022/09/17 02:13:19;;;;;;;19.85;2.45;;;;;;;10.08;100.00;101568.44;5270919;28;20020;-73
2022/09/17 02:15:57;;;;;;;17.35;2.40;;;;;;;10.06;100.00;101557.03;5274786;28;20031;-73
2022/09/17 02:19:10;;;;;;;15.23;2.40;;;;;;;10.08;100.00;101560.41;5269111;28;20024;-72
2022/09/17 02:21:59;;;;;;;13.68;2.58;;;;;;;10.07;100.00;101558.72;5270039;28;20055;-73
2022/09/17 02:24:36;;;;;;;17.80;2.40;;;;;;;10.11;100.00;101562.81;5278974;28;20042;-74
2022/09/17 02:27:19;;;;;;;15.90;2.40;;;;;;;10.10;100.00;101558.44;5291381;28;20034;-73
2022/09/17 02:29:58;;;;;;;20.27;1.92;;;;;;;10.09;100.00;101553.19;5276322;28;20445;-73
2022/09/17 02:32:28;;;;;;;14.20;2.25;;;;;;;10.08;100.00;101551.50;5250174;28;20028;-72
2022/09/17 02:34:59;;;;;;;14.45;2.33;;;;;;;10.11;100.00;101551.25;5276507;28;20019;-71
2022/09/17 02:37:30;;;;;;;13.70;2.00;;;;;;;10.08;100.00;101552.34;5289486;28;20204;-72
2022/09/17 02:40:01;;;;;;;16.92;2.28;;;;;;;10.09;100.00;101551.38;5272808;28;20070;-72
2022/09/17 02:43:08;;;;;;;16.58;2.03;;;;;;;10.11;100.00;101556.59;5278451;28;20027;-72
2022/09/17 02:45:45;;;;;;;18.35;2.60;;;;;;;10.05;100.00;101560.72;5288864;28;20027;-72
2022/09/17 02:48:45;;;;;;;12.15;1.80;;;;;;;10.03;100.00;101564.50;5289422;28;20397;-73
2022/09/17 02:51:32;;;;;;;8.60;1.80;;;;;;;9.93;100.00;101559.16;5275861;28;20028;-73
2022/09/17 02:54:11;;;;;;;10.85;1.90;;;;;;;9.85;100.00;101559.06;5277193;28;20028;-72
2022/09/17 02:57:17;;;;;;;12.75;2.38;;;;;;;9.81;100.00;101558.50;5274903;28;20023;-73
2022/09/17 03:00:06;;;;;;;13.02;2.25;;;;;;;9.71;100.00;101554.16;5274891;28;20031;-72
2022/09/17 03:02:43;;;;;;;13.98;2.65;;;;;;;9.61;100.00;101554.16;5279304;28;20046;-72
2022/09/17 03:05:17;;;;;;;15.77;2.10;;;;;;;9.50;100.00;101554.31;5287926;28;20027;-71
2022/09/17 03:07:47;;;;;;;11.70;2.72;;;;;;;9.43;100.00;101561.22;5268687;28;20020;-71
2022/09/17 03:10:18;;;;;;;15.40;2.80;;;;;;;9.36;100.00;101560.09;5267566;28;20386;-71
2022/09/17 03:12:51;;;;;;;12.65;2.33;;;;;;;9.37;100.00;101559.94;5267843;28;20168;-71
2022/09/17 03:15:22;;;;;;;19.65;2.50;;;;;;;9.34;100.00;101558.41;5285801;28;20020;-72
2022/09/17 03:17:52;;;;;;;13.90;2.38;;;;;;;9.23;100.00;101561.19;5267204;28;20111;-71
2022/09/17 03:20:23;;;;;;;11.32;2.28;;;;;;;9.16;100.00;101556.56;5283216;28;20251;-71
2022/09/17 03:22:53;;;;;;;15.05;2.90;;;;;;;9.08;100.00;101550.06;5278749;28;20074;-72
2022/09/17 03:25:24;;;;;;;17.13;2.15;;;;;;;9.05;100.00;101553.03;5270819;28;20030;-72
2022/09/17 03:27:54;;;;;;;22.30;2.75;;;;;;;9.04;100.00;101548.69;5277245;28;20116;-71
2022/09/17 03:30:25;;;;;;;12.80;2.28;;;;;;;9.01;100.00;101545.41;5285358;28;20043;-72
2022/09/17 03:32:55;;;;;;;20.38;3.13;;;;;;;8.98;100.00;101548.38;5288525;28;20019;-72
2022/09/17 03:35:26;;;;;;;21.52;2.45;;;;;;;8.95;100.00;101538.78;5279960;28;20556;-72
2022/09/17 03:37:56;;;;;;;15.15;2.30;;;;;;;8.93;100.00;101543.41;5288195;28;20039;-72
2022/09/17 03:40:27;;;;;;;16.10;3.20;;;;;;;8.89;100.00;101546.53;5287882;28;20058;-72
2022/09/17 03:42:57;;;;;;;24.90;3.50;;;;;;;8.83;100.00;101550.59;5287636;28;20023;-72
2022/09/17 03:45:27;;;;;;;14.73;2.83;;;;;;;8.78;100.00;101548.31;5274801;28;20028;-72
2022/09/17 03:47:58;;;;;;;23.13;2.80;;;;;;;8.75;100.00;101553.13;5287891;28;20024;-72
2022/09/17 03:50:28;;;;;;;30.17;4.20;;;;;;;8.77;100.00;101554.66;5288016;28;20024;-71
2022/09/17 03:52:59;;;;;;;17.17;2.75;;;;;;;8.79;100.00;101560.75;5287903;28;20035;-72
2022/09/17 03:55:29;;;;;;;21.42;2.95;;;;;;;8.86;100.00;101552.16;5286856;28;20024;-72
2022/09/17 03:58:00;;;;;;;28.65;3.33;;;;;;;8.93;100.00;101550.59;5288025;28;20047;-72
2022/09/17 04:00:30;;;;;;;26.10;3.08;;;;;;;8.99;100.00;101558.94;5287540;28;20059;-72
2022/09/17 04:03:01;;;;;;;20.35;2.85;;;;;;;9.01;100.00;101562.31;5288002;28;20047;-71
2022/09/17 04:05:32;;;;;;;24.65;2.78;;;;;;;8.98;100.00;101564.41;5287099;28;20354;-71
2022/09/17 04:08:02;;;;;;;18.05;2.65;;;;;;;9.02;100.00;101563.16;5287377;28;20122;-71
2022/09/17 04:10:32;;;;;;;23.73;3.20;;;;;;;9.04;100.00;101561.22;5273684;28;20370;-72
2022/09/17 04:13:03;;;;;;;14.68;2.38;;;;;;;9.05;100.00;101557.53;5279381;28;20443;-72
2022/09/17 04:15:33;;;;;;;18.27;3.70;;;;;;;9.06;100.00;101560.06;5273801;28;20393;-72
2022/09/17 04:18:04;;;;;;;27.58;3.00;;;;;;;9.04;100.00;101559.38;5266467;28;20086;-72
2022/09/17 04:20:35;;;;;;;21.90;2.65;;;;;;;8.90;100.00;101561.59;5265540;28;20753;-73
2022/09/17 04:23:06;;;;;;;16.83;3.08;;;;;;;8.84;100.00;101565.69;5266131;28;20028;-71
2022/09/17 04:25:38;;;;;;;16.90;3.92;;;;;;;8.83;100.00;101566.66;5270787;28;20026;-71
2022/09/17 04:28:08;;;;;;;17.40;4.65;;;;;;;8.87;100.00;101578.78;5272987;28;20024;-72
2022/09/17 04:30:40;;;;;;;20.15;3.33;;;;;;;8.99;100.00;101577.69;5272008;28;20047;-72
2022/09/17 04:33:10;;;;;;;15.15;3.00;;;;;;;9.06;100.00;101576.13;5284996;28;20023;-72
2022/09/17 04:35:41;;;;;;;20.02;3.30;;;;;;;9.09;100.00;101577.72;5279536;28;20024;-72
2022/09/17 04:38:17;;;;;;;24.75;3.30;;;;;;;9.10;100.00;101584.75;5272557;28;20070;-71
2022/09/17 04:40:47;;;;;;;19.70;3.50;;;;;;;9.13;100.00;101581.78;5286330;28;20020;-71
2022/09/17 04:43:18;;;;;;;34.25;3.72;;;;;;;9.16;100.00;101586.00;5272328;28;20039;-72
2022/09/17 04:45:49;;;;;;;24.08;3.15;;;;;;;9.19;100.00;101567.84;5273272;28;20162;-73
2022/09/17 04:48:19;;;;;;;18.45;3.38;;;;;;;9.23;100.00;101573.75;5278849;28;20858;-73
2022/09/17 04:50:50;;;;;;;23.52;3.55;;;;;;;9.25;100.00;101569.13;5265623;28;20027;-72
2022/09/17 04:53:21;;;;;;;46.67;5.90;;;;;;;9.28;100.00;101566.16;5272833;28;20024;-71
2022/09/17 04:55:51;;;;;;;21.08;4.28;;;;;;;9.30;100.00;101567.72;5270268;28;20024;-72
2022/09/17 04:58:22;;;;;;;25.30;4.00;;;;;;;9.33;100.00;101566.56;5265200;28;20027;-73
2022/09/17 05:00:52;;;;;;;17.85;3.92;;;;;;;9.33;100.00;101569.25;5280769;28;20111;-73
2022/09/17 05:03:23;;;;;;;21.02;4.65;;;;;;;9.32;100.00;101573.75;5285944;28;20043;-73
2022/09/17 05:05:53;;;;;;;16.95;2.97;;;;;;;9.32;100.00;101571.09;5286243;28;20405;-72
2022/09/17 05:08:24;;;;;;;28.35;3.63;;;;;;;9.34;100.00;101577.16;5275817;28;20089;-72
2022/09/17 05:10:55;;;;;;;16.45;3.55;;;;;;;9.34;100.00;101574.47;5265530;28;20084;-72
2022/09/17 05:13:25;;;;;;;27.30;4.15;;;;;;;9.37;100.00;101578.69;5277949;28;20039;-73
2022/09/17 05:15:56;;;;;;;23.23;4.07;;;;;;;9.42;100.00;101579.13;5280427;28;20016;-73
2022/09/17 05:18:26;;;;;;;28.33;3.90;;;;;;;9.45;100.00;101581.53;5279519;28;20020;-73
2022/09/17 05:20:57;;;;;;;17.65;4.35;;;;;;;9.47;100.00;101581.38;5272965;28;20031;-71
2022/09/17 05:23:27;;;;;;;25.73;3.78;;;;;;;9.46;100.00;101585.03;5233316;28;1133620;-71
2022/09/17 05:25:59;;;;;;;30.58;3.70;;;;;;;9.48;100.00;101591.09;5266864;28;20496;-71
2022/09/17 05:28:29;;;;;;;29.42;3.90;;;;;;;9.51;100.00;101591.66;5264304;28;20032;-71
2022/09/17 05:31:01;;;;;;;16.13;3.53;;;;;;;9.52;100.00;101589.84;5262821;28;21115;-71
2022/09/17 05:33:31;;;;;;;22.17;3.00;;;;;;;9.56;100.00;101605.50;5258574;28;20182;-71
2022/09/17 05:36:02;;;;;;;18.75;2.90;;;;;;;9.58;100.00;101603.50;5271706;28;20737;-71
2022/09/17 05:38:32;;;;;;;16.17;3.13;;;;;;;9.56;100.00;101602.81;5261281;28;20099;-72
2022/09/17 05:41:05;;;;;;;25.60;3.15;;;;;;;9.51;100.00;101606.91;5262117;28;20028;-71
2022/09/17 05:43:36;;;;;;;21.70;3.33;;;;;;;9.50;100.00;101611.41;5280452;28;20024;-71
2022/09/17 05:46:06;;;;;;;16.70;2.85;;;;;;;9.54;100.00;101610.16;5268810;28;20016;-71
2022/09/17 05:48:36;;;;;;;12.48;2.47;;;;;;;9.57;100.00;101614.38;5260840;28;20037;-71
2022/09/17 05:51:07;;;;;;;16.40;2.40;;;;;;;9.62;100.00;101609.44;5276433;28;20011;-71
2022/09/17 05:53:37;;;;;;;17.63;2.45;;;;;;;9.67;100.00;101612.53;5282595;28;20115;-71
2022/09/17 05:56:08;;;;;;;20.92;2.83;;;;;;;9.71;100.00;101613.09;5279821;28;20023;-71
2022/09/17 05:58:38;;;;;;;14.60;2.33;;;;;;;9.75;100.00;101609.16;5260781;28;20732;-71
2022/09/17 06:01:14;;;;;;;22.83;2.75;;;;;;;9.75;100.00;101614.50;5262184;28;20436;-71
2022/09/17 06:03:45;;;;;;;19.25;2.17;;;;;;;9.78;100.00;101614.22;5277498;28;20031;-71
2022/09/17 06:06:15;;;;;;;14.27;2.75;;;;;;;9.79;100.00;101623.97;5282069;28;20030;-71
2022/09/17 06:08:46;;;;;;;11.70;2.40;;;;;;;9.81;100.00;101625.50;5281461;28;20110;-71
2022/09/17 06:11:16;;;;;;;20.65;2.40;;;;;;;9.87;100.00;101624.06;5261763;28;20107;-71
2022/09/17 06:13:48;;;;;;;18.52;2.47;;;;;;;9.90;100.00;101633.69;5268425;28;20064;-71
2022/09/17 06:16:20;;;;;;;23.35;2.40;;;;;;;9.98;100.00;101640.00;5281746;28;20408;-71
2022/09/17 06:18:52;;;;;;;13.60;2.33;;;;;;;9.99;100.00;101641.72;5265347;28;20120;-71
2022/09/17 06:21:23;;;;;;;14.30;1.73;;;;;;;10.03;100.00;101635.06;5271881;28;20551;-71
2022/09/17 06:23:54;;;;;;;16.02;2.58;;;;;;;10.05;100.00;101627.72;5269361;28;20024;-71
2022/09/17 06:26:24;;;;;;;11.68;2.00;;;;;;;10.09;100.00;101636.31;5270467;28;20031;-71
2022/09/17 06:28:57;;;;;;;9.25;1.98;;;;;;;10.15;100.00;101632.22;5261230;28;20027;-71
2022/09/17 06:31:27;;;;;;;13.13;1.88;;;;;;;10.22;100.00;101638.69;5275956;28;20027;-71
2022/09/17 06:33:58;;;;;;;10.55;1.73;;;;;;;10.24;100.00;101636.75;5262402;28;20464;-71
2022/09/17 06:36:29;;;;;;;16.83;1.80;;;;;;;10.28;100.00;101627.41;5283382;28;20051;-71
2022/09/17 06:38:59;;;;;;;9.13;1.88;;;;;;;10.31;100.00;101627.13;5268051;28;20024;-71
2022/09/17 06:41:30;;;;;;;17.30;1.63;;;;;;;10.33;100.00;101631.34;5283400;28;20019;-71
2022/09/17 06:44:01;;;;;;;13.25;1.73;;;;;;;10.37;100.00;101631.91;5284244;28;20065;-71
2022/09/17 06:46:31;;;;;;;12.45;2.33;;;;;;;10.91;100.00;101632.97;5283958;28;20035;-71
2022/09/17 06:49:02;;;;;;;16.88;2.72;;;;;;;11.77;100.00;101644.13;5284306;28;20046;-71
2022/09/17 06:51:32;;;;;;;10.10;1.95;;;;;;;12.29;100.00;101640.66;5284061;28;20370;-71
2022/09/17 06:54:03;;;;;;;11.30;1.88;;;;;;;12.88;100.00;101639.81;5284459;28;20076;-71
2022/09/17 06:56:34;;;;;;;10.98;1.92;;;;;;;13.56;100.00;101633.47;5282742;28;20102;-71
2022/09/17 06:59:04;;;;;;;18.65;2.53;;;;;;;13.86;100.00;101621.19;5283253;28;20016;-71
2022/09/17 07:01:35;;;;;;;14.55;2.22;;;;;;;14.51;100.00;101625.69;5266718;28;20090;-71
2022/09/17 07:04:05;;;;;;;7.97;2.00;;;;;;;14.91;100.00;101624.69;5283966;28;20122;-71
2022/09/17 07:06:36;;;;;;;6.70;1.67;;;;;;;15.32;100.00;101637.13;5283764;28;20023;-71
2022/09/17 07:09:06;;;;;;;14.65;2.00;;;;;;;15.46;100.00;101637.22;5283782;28;20019;-71
2022/09/17 07:11:38;;;;;;;7.07;1.42;;;;;;;15.88;100.00;101659.44;5284421;28;20043;-71
2022/09/17 07:14:08;;;;;;;12.73;2.72;;;;;;;16.17;100.00;101675.75;5282323;28;20035;-72
2022/09/17 07:16:39;;;;;;;11.52;2.08;;;;;;;15.09;100.00;101664.09;5283996;28;20022;-72
2022/09/17 07:19:09;;;;;;;12.45;1.90;;;;;;;13.88;100.00;101640.72;5281339;28;20028;-73
2022/09/17 07:21:40;;;;;;;13.02;2.22;;;;;;;13.12;100.00;101646.31;5264105;28;20110;-72
2022/09/17 07:24:10;;;;;;;12.57;2.03;;;;;;;12.55;100.00;101654.97;5240725;28;20035;-72
2022/09/17 07:26:41;;;;;;;11.05;2.20;;;;;;;12.24;100.00;101662.66;5281446;28;20039;-72
2022/09/17 07:29:11;;;;;;;11.25;1.95;;;;;;;12.02;100.00;101661.31;5281344;28;20019;-71
2022/09/17 07:31:42;;;;;;;16.83;2.45;;;;;;;11.93;100.00;101671.16;5282331;28;20035;-71
2022/09/17 07:34:12;;;;;;;8.70;1.88;;;;;;;12.01;100.00;101673.09;5280253;28;20076;-71
2022/09/17 07:36:43;;;;;;;14.93;1.67;;;;;;;12.32;100.00;101672.66;5282593;28;20236;-71
2022/09/17 07:39:14;;;;;;;14.75;2.28;;;;;;;12.47;100.00;101657.59;5281403;28;20360;-71
2022/09/17 07:41:44;;;;;;;17.75;2.83;;;;;;;13.32;100.00;101658.53;5282177;28;20026;-71
2022/09/17 07:44:15;;;;;;;14.30;2.50;;;;;;;14.30;100.00;101658.56;5281123;28;20038;-71
2022/09/17 07:46:45;;;;;;;12.30;2.25;;;;;;;15.12;100.00;101651.09;5281894;28;20958;-71
2022/09/17 07:49:15;;;;;;;10.32;2.30;;;;;;;14.92;100.00;101647.13;5281000;28;20023;-71
2022/09/17 07:51:46;;;;;;;11.60;1.83;;;;;;;14.18;100.00;101655.38;5281639;28;20058;-71
2022/09/17 07:54:17;;;;;;;8.32;1.55;;;;;;;13.88;100.00;101647.97;5280298;28;20031;-71
2022/09/17 07:56:47;;;;;;;10.43;1.60;;;;;;;13.97;100.00;101653.22;5263952;28;20377;-71
2022/09/17 07:59:20;;;;;;;10.57;2.08;;;;;;;14.73;100.00;101659.19;5280205;28;20046;-71
2022/09/17 08:01:50;;;;;;;9.13;1.80;;;;;;;15.69;100.00;101656.19;5282354;28;20026;-71
2022/09/17 08:04:21;;;;;;;9.43;1.95;;;;;;;15.96;100.00;101646.66;5261710;28;20031;-71
2022/09/17 08:06:51;;;;;;;10.50;1.80;;;;;;;16.44;100.00;101651.81;5280788;28;20032;-71
2022/09/17 08:09:22;;;;;;;10.00;1.77;;;;;;;16.65;100.00;101643.78;5280698;28;20249;-71
2022/09/17 08:11:52;;;;;;;12.20;3.92;;;;;;;16.55;100.00;101662.16;5281298;28;20070;-71
2022/09/17 08:14:23;;;;;;;24.15;13.73;;;;;;;15.67;100.00;101674.47;5280511;28;20019;-71
2022/09/17 08:16:53;;;;;;;11.27;2.85;;;;;;;14.91;100.00;101669.75;5280938;28;20012;-71
2022/09/17 08:19:24;;;;;;;108.75;62.05;;;;;;;14.09;100.00;101663.66;5280232;28;20015;-71
2022/09/17 08:21:55;;;;;;;36.70;13.27;;;;;;;13.61;100.00;101668.88;5262576;28;20047;-72
2022/09/17 08:24:26;;;;;;;8.38;3.58;;;;;;;13.22;100.00;101665.91;5280523;28;20391;-72
2022/09/17 08:26:57;;;;;;;14.48;2.35;;;;;;;12.82;100.00;101662.00;5262182;28;20056;-71
2022/09/17 08:29:27;;;;;;;10.70;2.80;;;;;;;13.52;100.00;101664.47;5280862;28;20023;-71
2022/09/17 08:31:57;;;;;;;17.63;4.03;;;;;;;14.43;100.00;101664.28;5280630;28;20076;-72
2022/09/17 08:34:28;;;;;;;10.80;2.08;;;;;;;15.28;100.00;101660.97;5278783;28;20262;-71
2022/09/17 08:36:58;;;;;;;12.80;2.28;;;;;;;16.10;100.00;101661.25;5280667;28;20023;-71
2022/09/17 08:39:29;;;;;;;8.05;2.08;;;;;;;16.53;100.00;101669.66;5279803;28;20027;-71
2022/09/17 08:42:05;;;;;;;7.97;1.52;;;;;;;17.03;100.00;101654.53;5280876;28;20032;-71
2022/09/17 08:44:41;;;;;;;11.50;1.80;;;;;;;17.52;100.00;101654.72;5279720;28;20031;-71
2022/09/17 08:47:27;;;;;;;7.57;1.58;;;;;;;17.93;100.00;101650.53;5279868;28;20453;-72
2022/09/17 08:50:02;;;;;;;9.48;1.98;;;;;;;17.78;100.00;101667.72;5279843;28;20039;-71
2022/09/17 08:52:40;;;;;;;10.70;1.50;;;;;;;17.92;100.00;101665.13;5280838;28;20051;-71
2022/09/17 08:55:12;;;;;;;12.15;2.38;;;;;;;17.31;100.00;101660.91;5279121;28;20115;-71
2022/09/17 08:57:59;;;;;;;9.18;2.33;;;;;;;17.35;100.00;101662.22;5279594;28;20111;-72
2022/09/17 09:00:41;;;;;;;8.25;2.10;;;;;;;17.28;100.00;101669.44;5263781;28;20024;-71
2022/09/17 09:03:48;;;;;;;12.05;1.88;;;;;;;17.09;100.00;101654.63;5280348;28;20456;-71
2022/09/17 09:06:21;;;;;;;;;;;;;;;16.88;100.00;101653.72;5279688;28;20015;-71
2022/09/17 09:09:26;;;;;;;8.25;2.08;;;;;;;16.22;100.00;101676.06;5280081;28;19990;-71
2022/09/17 09:12:04;;;;;;;11.18;2.08;;;;;;;15.41;100.00;101679.31;5280685;28;20700;-73
2022/09/17 09:14:43;;;;;;;12.88;1.85;;;;;;;14.30;100.00;101682.84;5279480;28;20034;-72
2022/09/17 09:17:18;;;;;;;9.18;1.63;;;;;;;13.73;100.00;101689.09;5279773;28;20046;-72
2022/09/17 09:19:48;;;;;;;13.05;2.28;;;;;;;13.27;100.00;101686.97;5279354;28;20031;-72
2022/09/17 09:22:51;;;;;;;9.27;2.17;;;;;;;13.50;100.00;101690.72;5280322;28;20035;-71
2022/09/17 09:25:26;;;;;;;9.20;1.90;;;;;;;14.27;100.00;101694.00;5278837;28;20520;-72
2022/09/17 09:28:08;;;;;;;9.77;1.50;;;;;;;15.38;100.00;101687.78;5279569;28;20102;-71
2022/09/17 09:31:12;;;;;;;10.23;1.60;;;;;;;16.13;100.00;101695.25;5280269;28;20024;-71
2022/09/17 09:33:44;;;;;;;12.80;1.83;;;;;;;16.83;100.00;101676.78;5279670;28;20035;-72
2022/09/17 09:36:20;;;;;;;7.22;1.60;;;;;;;17.18;100.00;101682.47;5279769;28;20149;-71
2022/09/17 09:38:58;;;;;;;8.15;2.63;;;;;;;17.49;100.00;101678.66;5279866;28;20258;-72
2022/09/17 09:41:39;;;;;;;12.75;2.10;;;;;;;17.76;100.00;101675.22;5280419;28;20422;-72
2022/09/17 09:44:12;;;;;;;8.35;1.20;;;;;;;17.30;100.00;101678.22;5279291;28;20107;-71
2022/09/17 09:47:12;;;;;;;9.35;2.63;;;;;;;17.23;100.00;101679.19;5279981;28;20035;-72
2022/09/17 09:53:46;;;;;;;6.97;1.60;;;;;;;16.83;100.00;101673.25;5280146;28;20485;-71
2022/09/17 09:56:36;;;;;;;4.38;1.38;;;;;;;16.21;100.00;101679.75;5261176;28;20297;-71
2022/09/17 09:59:07;;;;;;;11.43;1.83;;;;;;;16.12;100.00;101689.00;5279114;28;20031;-70
2022/09/17 10:01:41;;;;;;;10.18;1.63;;;;;;;16.21;100.00;101678.91;5280688;28;20023;-71
2022/09/17 10:04:28;;;;;;;8.27;1.45;;;;;;;16.36;100.00;101678.94;5278893;28;20023;-71
2022/09/17 10:07:02;;;;;;;8.77;1.65;;;;;;;16.11;100.00;101687.28;5280207;28;20032;-70
2022/09/17 10:09:35;;;;;;;8.55;1.42;;;;;;;15.91;100.00;101686.94;5279032;28;20130;-71
2022/09/17 10:12:07;;;;;;;6.05;1.35;;;;;;;15.41;100.00;101680.19;5279768;28;20024;-71
2022/09/17 10:14:39;;;;;;;4.47;1.00;;;;;;;14.98;100.00;101685.09;5280712;28;20371;-71
2022/09/17 10:17:28;;;;;;;5.75;1.50;;;;;;;14.67;100.00;101689.59;5283189;28;20027;-70
2022/09/17 10:19:58;;;;;;;6.68;1.95;;;;;;;14.49;100.00;101701.44;5283753;28;20499;-71
2022/09/17 10:22:48;;;;;;;8.52;1.30;;;;;;;14.09;100.00;101701.44;5284138;28;20031;-71
2022/09/17 10:25:28;;;;;;;3.88;1.90;;;;;;;13.79;100.00;101690.28;5282830;28;20023;-70
2022/09/17 10:28:03;;;;;;;10.02;6.80;;;;;;;13.72;100.00;101692.81;5283237;28;20027;-70
2022/09/17 10:30:33;;;;;;;4.50;1.02;;;;;;;14.08;100.00;101692.50;5285266;28;20377;-70
2022/09/17 10:33:26;;;;;;;5.20;0.80;;;;;;;14.92;100.00;101684.97;5272141;28;20032;-70
2022/09/17 10:36:17;;;;;;;6.25;3.65;;;;;;;15.20;100.00;101683.47;5274813;28;20541;-70
2022/09/17 10:38:48;;;;;;;5.70;1.23;;;;;;;15.62;100.00;101684.94;5264857;28;20032;-70
2022/09/17 10:41:22;;;;;;;3.72;0.88;;;;;;;15.75;100.00;101682.50;5266366;28;20085;-70
2022/09/17 10:43:52;;;;;;;5.93;0.98;;;;;;;15.53;100.00;101688.72;5284813;28;20629;-70
2022/09/17 10:46:38;;;;;;;4.43;1.10;;;;;;;15.27;100.00;101714.19;5282907;28;20098;-71
2022/09/17 10:49:24;;;;;;;5.70;1.23;;;;;;;14.60;100.00;101716.41;5282463;28;20032;-72
2022/09/17 10:52:07;;;;;;;6.47;1.98;;;;;;;13.96;100.00;101710.03;5283272;28;20047;-72
2022/09/17 10:55:01;;;;;;;8.80;0.90;;;;;;;13.38;100.00;101702.84;5282174;28;20370;-71
2022/09/17 11:01:46;;;;;;;5.82;2.70;;;;;;;12.80;100.00;101703.53;5273417;28;20140;-72
2022/09/17 11:04:27;;;;;;;8.23;0.98;;;;;;;12.78;100.00;101711.78;5274769;28;20401;-72
2022/09/17 11:07:14;;;;;;;6.65;3.80;;;;;;;12.95;100.00;101704.63;5283346;28;20374;-71
2022/09/17 11:10:01;;;;;;;6.50;2.78;;;;;;;13.16;100.00;101698.84;5282625;28;20069;-71
2022/09/17 11:12:49;;;;;;;8.32;2.55;;;;;;;13.47;100.00;101697.31;5283178;28;20368;-71
2022/09/17 11:15:28;;;;;;;7.30;1.40;;;;;;;13.72;100.00;101700.06;5281453;28;20119;-71
2022/09/17 11:18:26;;;;;;;14.65;12.20;;;;;;;13.92;100.00;101697.88;5283069;28;20102;-71
2022/09/17 11:21:17;;;;;;;4.20;2.45;;;;;;;14.08;100.00;101695.19;5282686;28;20031;-71
2022/09/17 11:24:06;;;;;;;4.65;1.85;;;;;;;14.32;100.00;101688.94;5282441;28;20062;-71
2022/09/17 11:26:44;;;;;;;4.78;3.75;;;;;;;14.46;100.00;101688.25;5283680;28;20465;-71
2022/09/17 11:29:29;;;;;;;5.47;2.25;;;;;;;14.72;100.00;101690.75;5281839;28;20499;-71
2022/09/17 11:32:12;;;;;;;4.18;1.85;;;;;;;14.89;100.00;101685.28;5283850;28;20119;-71
2022/09/17 11:35:06;;;;;;;3.05;1.45;;;;;;;15.02;100.00;101685.59;5277154;28;20016;-71
2022/09/17 11:37:47;;;;;;;3.22;1.70;;;;;;;15.19;100.00;101680.94;5274883;28;20020;-71
2022/09/17 11:40:53;;;;;;;4.47;0.85;;;;;;;15.39;100.00;101665.13;5271343;28;20571;-71
2022/09/17 11:43:26;;;;;;;3.55;0.75;;;;;;;15.80;100.00;101671.13;5281277;28;20438;-71
2022/09/17 11:46:04;;;;;;;6.63;0.82;;;;;;;16.10;100.00;101674.78;5280690;27;20133;-71
2022/09/17 11:48:43;;;;;;;5.00;1.13;;;;;;;16.23;100.00;101666.06;5280595;28;20106;-71
2022/09/17 11:51:34;;;;;;;5.22;1.15;;;;;;;16.38;100.00;101666.09;5273978;28;20023;-71
2022/09/17 11:54:26;;;;;;;6.45;1.10;;;;;;;16.68;100.00;101656.97;5277502;28;20076;-71
2022/09/17 11:57:09;;;;;;;4.78;1.05;;;;;;;16.78;100.00;101657.56;5266972;28;20085;-71
2022/09/17 12:00:00;;;;;;;3.42;0.90;;;;;;;16.64;100.00;101668.34;5268052;28;20030;-71
2022/09/17 12:03:09;;;;;;;6.72;1.33;;;;;;;15.93;100.00;101673.25;5285365;28;20042;-71
2022/09/17 12:05:55;;;;;;;52.60;23.10;;;;;;;15.20;100.00;101678.06;5280746;28;20480;-71